createdAt,value
2023-05-04T00:00:00.573Z,74.7
2023-05-04T00:01:00.592Z,74.6
2023-05-04T00:02:00.868Z,74.6
2023-05-04T00:03:00.578Z,74.8
2023-05-04T00:04:00.820Z,74.9
2023-05-04T00:05:00.623Z,74.8
2023-05-04T00:06:00.568Z,75.0
2023-05-04T00:07:00.611Z,75.2
2023-05-04T00:08:00.532Z,75.2
2023-05-04T00:09:00.537Z,75.3
2023-05-04T00:10:00.588Z,75.4
2023-05-04T00:11:00.530Z,75.4
2023-05-04T00:12:01.081Z,75.3
2023-05-04T00:13:00.626Z,75.3
2023-05-04T00:14:00.622Z,75.3
2023-05-04T00:15:00.575Z,75.3
2023-05-04T00:16:00.603Z,75.3
2023-05-04T00:17:00.522Z,75.3
2023-05-04T00:18:00.683Z,75.4
2023-05-04T00:19:00.606Z,75.5
2023-05-04T00:20:00.574Z,75.6
2023-05-04T00:21:00.617Z,75.6
2023-05-04T00:22:00.924Z,75.6
2023-05-04T00:23:00.606Z,75.7
2023-05-04T00:24:00.574Z,75.7
2023-05-04T00:25:00.592Z,75.7
2023-05-04T00:26:00.569Z,75.6
2023-05-04T00:27:00.611Z,75.6
2023-05-04T00:28:00.578Z,75.7
2023-05-04T00:29:00.552Z,75.9
2023-05-04T00:30:00.591Z,75.9
2023-05-04T00:31:00.727Z,75.8
2023-05-04T00:32:00.618Z,75.9
2023-05-04T00:33:00.600Z,76.0
2023-05-04T00:34:00.633Z,76.0
2023-05-04T00:35:00.635Z,75.9
2023-05-04T00:36:02.158Z,75.7
2023-05-04T00:37:00.568Z,75.7
2023-05-04T00:38:01.967Z,75.9
2023-05-04T00:39:00.585Z,75.9
2023-05-04T00:40:00.664Z,76.0
2023-05-04T00:41:00.499Z,76.0
2023-05-04T00:42:00.514Z,76.0
2023-05-04T00:43:00.536Z,76.0
2023-05-04T00:44:01.556Z,76.1
2023-05-04T00:45:00.795Z,76.3
2023-05-04T00:46:00.539Z,76.3
2023-05-04T00:47:01.454Z,76.3
2023-05-04T00:48:00.602Z,76.3
2023-05-04T00:49:00.558Z,76.4
2023-05-04T00:50:00.648Z,76.4
2023-05-04T00:51:01.384Z,76.4
2023-05-04T00:52:01.980Z,76.4
2023-05-04T00:53:05.138Z,76.3
2023-05-04T00:54:00.657Z,76.3
2023-05-04T00:55:00.953Z,76.2
2023-05-04T00:56:00.962Z,76.2
2023-05-04T00:57:01.206Z,76.2
2023-05-04T00:58:00.610Z,76.3
2023-05-04T00:59:00.561Z,76.4
2023-05-04T01:00:00.667Z,76.5
2023-05-04T01:01:01.317Z,76.4
2023-05-04T01:02:00.543Z,76.4
2023-05-04T01:03:00.709Z,76.4
2023-05-04T01:04:00.824Z,76.4
2023-05-04T01:05:01.219Z,76.3
2023-05-04T01:06:10.454Z,76.5
2023-05-04T01:07:01.614Z,76.5
2023-05-04T01:08:03.249Z,76.6
2023-05-04T01:09:00.482Z,76.6
2023-05-04T01:10:07.837Z,76.5
2023-05-04T01:11:06.170Z,76.7
2023-05-04T01:12:10.423Z,77.0
2023-05-04T01:13:06.030Z,77.0
2023-05-04T01:14:01.033Z,77.0
2023-05-04T01:15:01.612Z,77.0
2023-05-04T01:16:01.299Z,76.9
2023-05-04T01:17:03.429Z,77.0
2023-05-04T01:18:00.733Z,76.9
2023-05-04T01:19:01.601Z,76.9
2023-05-04T01:20:00.594Z,76.8
2023-05-04T01:21:00.574Z,76.8
2023-05-04T01:22:00.544Z,76.8
2023-05-04T01:23:01.224Z,76.9
2023-05-04T01:24:00.605Z,76.9
2023-05-04T01:25:00.922Z,76.9
2023-05-04T01:26:07.916Z,76.9
2023-05-04T01:27:07.564Z,76.9
2023-05-04T01:28:04.671Z,76.9
2023-05-04T01:29:07.942Z,76.9
2023-05-04T01:30:01.776Z,76.9
2023-05-04T01:31:01.463Z,76.9
2023-05-04T01:32:01.369Z,77.0
2023-05-04T01:33:01.267Z,77.1
2023-05-04T01:34:01.053Z,77.2
2023-05-04T01:35:00.666Z,77.2
2023-05-04T01:36:00.737Z,77.1
2023-05-04T01:37:00.793Z,77.2
2023-05-04T01:38:01.036Z,77.3
2023-05-04T01:39:01.572Z,77.5
2023-05-04T01:40:00.591Z,77.5
2023-05-04T01:41:00.616Z,77.5
2023-05-04T01:42:00.565Z,77.5
2023-05-04T01:43:00.579Z,77.5
2023-05-04T01:44:00.990Z,77.6
2023-05-04T01:45:00.590Z,77.6
2023-05-04T01:46:00.679Z,77.4
2023-05-04T01:47:00.555Z,77.4
2023-05-04T01:48:01.125Z,77.4
2023-05-04T01:49:00.719Z,77.4
2023-05-04T01:50:00.657Z,77.4
2023-05-04T01:51:00.582Z,77.5
2023-05-04T01:52:00.610Z,77.7
2023-05-04T01:53:00.560Z,77.8
2023-05-04T01:54:00.759Z,77.7
2023-05-04T01:55:00.611Z,77.6
2023-05-04T01:56:00.594Z,77.5
2023-05-04T01:57:00.595Z,77.5
2023-05-04T01:58:00.549Z,77.6
2023-05-04T01:59:00.601Z,77.7
2023-05-04T02:00:00.654Z,77.8
2023-05-04T02:01:00.534Z,77.9
2023-05-04T02:02:00.632Z,77.9
2023-05-04T02:03:00.662Z,77.9
2023-05-04T02:04:00.752Z,78.1
2023-05-04T02:05:00.586Z,78.1
2023-05-04T02:06:00.556Z,78.0
2023-05-04T02:07:00.550Z,78.0
2023-05-04T02:08:00.628Z,78.0
2023-05-04T02:09:00.559Z,78.2
2023-05-04T02:10:00.540Z,78.2
2023-05-04T02:11:00.760Z,78.2
2023-05-04T02:12:00.601Z,78.2
2023-05-04T02:13:00.583Z,78.1
2023-05-04T02:14:00.566Z,78.2
2023-05-04T02:15:00.586Z,78.2
2023-05-04T02:16:00.562Z,78.1
2023-05-04T02:17:00.562Z,78.1
2023-05-04T02:18:00.646Z,78.1
2023-05-04T02:19:00.545Z,78.2
2023-05-04T02:20:00.659Z,78.3
2023-05-04T02:21:00.568Z,78.3
2023-05-04T02:22:00.632Z,78.3
2023-05-04T02:23:00.583Z,78.3
2023-05-04T02:24:00.613Z,78.2
2023-05-04T02:25:00.847Z,78.2
2023-05-04T02:26:00.600Z,78.1
2023-05-04T02:27:00.686Z,78.0
2023-05-04T02:28:00.573Z,78.1
2023-05-04T02:29:00.812Z,78.1
2023-05-04T02:30:00.641Z,78.1
2023-05-04T02:31:00.547Z,78.2
2023-05-04T02:32:00.653Z,78.2
2023-05-04T02:33:00.676Z,78.1
2023-05-04T02:34:00.813Z,78.1
2023-05-04T02:35:00.613Z,78.2
2023-05-04T02:36:00.613Z,78.2
2023-05-04T02:37:00.530Z,78.3
2023-05-04T02:38:00.609Z,78.4
2023-05-04T02:39:00.640Z,78.5
2023-05-04T02:40:00.662Z,78.4
2023-05-04T02:41:00.539Z,78.4
2023-05-04T02:42:00.908Z,78.4
2023-05-04T02:43:00.537Z,78.4
2023-05-04T02:44:00.673Z,78.4
2023-05-04T02:45:00.576Z,78.5
2023-05-04T02:46:00.659Z,78.3
2023-05-04T02:47:00.595Z,78.3
2023-05-04T02:48:00.614Z,78.3
2023-05-04T02:49:00.552Z,78.4
2023-05-04T02:50:00.613Z,78.4
2023-05-04T02:51:00.528Z,78.5
2023-05-04T02:52:00.633Z,78.5
2023-05-04T02:53:00.713Z,78.4
2023-05-04T02:54:00.549Z,78.4
2023-05-04T02:55:01.243Z,78.4
2023-05-04T02:56:00.644Z,78.3
2023-05-04T02:57:00.613Z,78.3
2023-05-04T02:58:00.573Z,78.3
2023-05-04T02:59:00.619Z,78.4
2023-05-04T03:00:00.603Z,78.5
2023-05-04T03:01:00.625Z,78.6
2023-05-04T03:02:00.604Z,78.7
2023-05-04T03:03:00.598Z,78.8
2023-05-04T03:04:00.600Z,78.7
2023-05-04T03:05:01.100Z,78.7
2023-05-04T03:06:00.590Z,78.5
2023-05-04T03:07:00.601Z,78.5
2023-05-04T03:08:00.581Z,78.5
2023-05-04T03:09:00.606Z,78.6
2023-05-04T03:10:00.552Z,78.6
2023-05-04T03:11:00.567Z,78.5
2023-05-04T03:12:01.078Z,78.5
2023-05-04T03:13:00.560Z,78.5
2023-05-04T03:14:00.542Z,78.5
2023-05-04T03:15:00.727Z,78.5
2023-05-04T03:16:00.600Z,78.5
2023-05-04T03:17:01.244Z,78.5
2023-05-04T03:18:00.629Z,78.5
2023-05-04T03:19:00.624Z,78.5
2023-05-04T03:20:00.624Z,78.5
2023-05-04T03:21:00.567Z,78.6
2023-05-04T03:22:00.569Z,78.7
2023-05-04T03:23:00.589Z,78.8
2023-05-04T03:24:00.552Z,78.7
2023-05-04T03:25:00.862Z,78.8
2023-05-04T03:26:00.764Z,78.7
2023-05-04T03:27:00.691Z,78.9
2023-05-04T03:28:01.185Z,79.1
2023-05-04T03:29:00.693Z,79.1
2023-05-04T03:30:00.734Z,79.2
2023-05-04T03:31:00.683Z,79.3
2023-05-04T03:32:00.666Z,79.3
2023-05-04T03:33:00.710Z,79.4
2023-05-04T03:34:00.684Z,79.4
2023-05-04T03:35:02.689Z,79.5
2023-05-04T03:36:00.646Z,79.4
2023-05-04T03:37:00.625Z,79.3
2023-05-04T03:38:00.850Z,79.3
2023-05-04T03:39:00.633Z,79.3
2023-05-04T03:40:00.719Z,79.4
2023-05-04T03:41:01.250Z,79.4
2023-05-04T03:42:00.728Z,79.5
2023-05-04T03:43:00.751Z,79.6
2023-05-04T03:44:00.685Z,79.6
2023-05-04T03:45:03.124Z,79.7
2023-05-04T03:46:00.930Z,79.5
2023-05-04T03:47:00.700Z,79.5
2023-05-04T03:48:00.701Z,79.5
2023-05-04T03:49:00.741Z,79.5
2023-05-04T03:50:00.712Z,79.5
2023-05-04T03:51:00.725Z,79.4
2023-05-04T03:52:00.642Z,79.4
2023-05-04T03:53:00.678Z,79.4
2023-05-04T03:54:00.740Z,79.4
2023-05-04T03:55:00.770Z,79.4
2023-05-04T03:56:01.288Z,79.3
2023-05-04T03:57:00.643Z,79.3
2023-05-04T03:58:01.043Z,79.3
2023-05-04T03:59:00.635Z,79.3
2023-05-04T04:00:00.660Z,79.3
2023-05-04T04:01:00.901Z,79.3
2023-05-04T04:02:00.634Z,79.3
2023-05-04T04:03:00.641Z,79.4
2023-05-04T04:04:00.683Z,79.3
2023-05-04T04:05:00.664Z,79.2
2023-05-04T04:06:00.824Z,79.1
2023-05-04T04:07:00.665Z,79.1
2023-05-04T04:08:00.630Z,79.1
2023-05-04T04:09:00.624Z,79.1
2023-05-04T04:10:00.689Z,79.1
2023-05-04T04:11:00.875Z,79.1
2023-05-04T04:12:00.582Z,79.1
2023-05-04T04:13:00.748Z,79.2
2023-05-04T04:14:00.711Z,79.4
2023-05-04T04:15:00.685Z,79.4
2023-05-04T04:16:00.665Z,79.2
2023-05-04T04:17:00.624Z,79.2
2023-05-04T04:18:00.747Z,79.2
2023-05-04T04:19:00.595Z,79.3
2023-05-04T04:20:00.688Z,79.3
2023-05-04T04:21:00.733Z,79.2
2023-05-04T04:22:00.680Z,79.3
2023-05-04T04:23:00.539Z,79.3
2023-05-04T04:24:00.666Z,79.3
2023-05-04T04:25:00.704Z,79.4
2023-05-04T04:26:00.549Z,79.2
2023-05-04T04:27:00.606Z,79.3
2023-05-04T04:28:00.596Z,79.3
2023-05-04T04:29:00.560Z,79.4
2023-05-04T04:30:00.568Z,79.4
2023-05-04T04:31:00.642Z,79.5
2023-05-04T04:32:01.339Z,79.6
2023-05-04T04:33:00.807Z,79.6
2023-05-04T04:34:00.577Z,79.5
2023-05-04T04:35:01.138Z,79.6
2023-05-04T04:36:00.597Z,79.5
2023-05-04T04:37:00.595Z,79.5
2023-05-04T04:38:03.431Z,79.6
2023-05-04T04:39:00.882Z,79.7
2023-05-04T04:40:00.647Z,79.8
2023-05-04T04:41:00.610Z,80.0
2023-05-04T04:42:00.657Z,80.0
2023-05-04T04:43:00.628Z,80.1
2023-05-04T04:44:00.773Z,80.2
2023-05-04T04:45:00.615Z,80.3
2023-05-04T04:46:00.836Z,80.2
2023-05-04T04:47:00.719Z,80.2
2023-05-04T04:48:00.868Z,80.2
2023-05-04T04:49:01.048Z,80.3
2023-05-04T04:50:00.593Z,80.4
2023-05-04T04:51:00.641Z,80.5
2023-05-04T04:52:00.646Z,80.4
2023-05-04T04:53:00.645Z,80.4
2023-05-04T04:54:00.703Z,80.3
2023-05-04T04:55:00.772Z,80.3
2023-05-04T04:56:01.113Z,80.2
2023-05-04T04:57:00.612Z,80.2
2023-05-04T04:58:00.646Z,80.2
2023-05-04T04:59:00.560Z,80.3
2023-05-04T05:00:00.681Z,80.4
2023-05-04T05:01:02.358Z,80.5
2023-05-04T05:02:00.709Z,80.5
2023-05-04T05:03:01.178Z,80.5
2023-05-04T05:04:00.684Z,80.5
2023-05-04T05:05:00.674Z,80.6
2023-05-04T05:06:00.820Z,80.5
2023-05-04T05:07:00.648Z,80.4
2023-05-04T05:08:00.678Z,80.4
2023-05-04T05:09:00.546Z,80.4
2023-05-04T05:10:00.714Z,80.5
2023-05-04T05:11:00.684Z,80.5
2023-05-04T05:12:00.672Z,80.5
2023-05-04T05:13:00.668Z,80.5
2023-05-04T05:14:00.623Z,80.5
2023-05-04T05:15:00.598Z,80.4
2023-05-04T05:16:00.620Z,80.2
2023-05-04T05:17:01.002Z,80.2
2023-05-04T05:18:00.718Z,80.1
2023-05-04T05:19:00.620Z,80.1
2023-05-04T05:20:00.611Z,80.1
2023-05-04T05:21:00.651Z,80.1
2023-05-04T05:22:00.596Z,80.1
2023-05-04T05:23:00.601Z,80.1
2023-05-04T05:24:00.664Z,80.1
2023-05-04T05:25:00.648Z,80.0
2023-05-04T05:26:03.145Z,79.8
2023-05-04T05:27:00.656Z,79.6
2023-05-04T05:28:00.703Z,79.6
2023-05-04T05:29:00.674Z,79.4
2023-05-04T05:30:00.920Z,79.4
2023-05-04T05:31:00.722Z,79.3
2023-05-04T05:32:00.633Z,79.2
2023-05-04T05:33:00.810Z,79.1
2023-05-04T05:34:00.760Z,78.9
2023-05-04T05:35:00.593Z,78.8
2023-05-04T05:36:00.621Z,78.6
2023-05-04T05:37:00.611Z,78.4
2023-05-04T05:38:00.651Z,78.2
2023-05-04T05:39:00.682Z,78.0
2023-05-04T05:40:00.616Z,78.0
2023-05-04T05:41:00.608Z,77.6
2023-05-04T05:42:00.613Z,77.5
2023-05-04T05:43:01.280Z,77.2
2023-05-04T05:44:00.577Z,77.3
2023-05-04T05:45:00.596Z,77.1
2023-05-04T05:46:00.605Z,77.0
2023-05-04T05:47:00.582Z,76.7
2023-05-04T05:48:01.067Z,76.7
2023-05-04T05:49:00.582Z,76.3
2023-05-04T05:50:00.616Z,76.2
2023-05-04T05:51:00.628Z,76.2
2023-05-04T05:52:00.524Z,75.9
2023-05-04T05:53:00.517Z,75.6
2023-05-04T05:54:00.604Z,75.2
2023-05-04T05:55:02.634Z,75.0
2023-05-04T05:56:00.580Z,74.8
2023-05-04T05:57:00.604Z,74.3
2023-05-04T05:58:00.584Z,74.0
2023-05-04T05:59:00.566Z,73.6
2023-05-04T06:00:00.610Z,73.2
2023-05-04T06:01:00.667Z,72.4
2023-05-04T06:02:00.575Z,71.9
2023-05-04T06:03:00.747Z,70.8
2023-05-04T06:04:00.898Z,71.4
2023-05-04T06:05:00.704Z,71.6
2023-05-04T06:06:00.575Z,72.0
2023-05-04T06:07:00.590Z,71.7
2023-05-04T06:08:00.616Z,70.5
2023-05-04T06:09:00.584Z,70.3
2023-05-04T06:10:00.660Z,69.6
2023-05-04T06:11:00.537Z,69.2
2023-05-04T06:12:00.657Z,68.8
2023-05-04T06:13:00.716Z,67.2
2023-05-04T06:14:00.585Z,64.6
2023-05-04T06:15:00.574Z,65.1
2023-05-04T06:16:00.608Z,65.3
2023-05-04T06:17:00.554Z,64.4
2023-05-04T06:18:00.688Z,63.3
2023-05-04T06:19:00.538Z,62.8
2023-05-04T06:20:00.522Z,62.8
2023-05-04T06:21:00.580Z,61.7
2023-05-04T06:22:00.709Z,61.8
2023-05-04T06:23:00.726Z,62.0
2023-05-04T06:24:00.572Z,60.8
2023-05-04T06:25:05.087Z,58.8
2023-05-04T06:26:00.573Z,58.1
2023-05-04T06:27:00.583Z,56.7
2023-05-04T06:28:00.552Z,58.1
2023-05-04T06:29:00.622Z,58.0
2023-05-04T06:30:00.574Z,58.3
2023-05-04T06:31:00.821Z,58.4
2023-05-04T06:32:00.617Z,58.6
2023-05-04T06:33:00.556Z,55.6
2023-05-04T06:34:00.583Z,54.8
2023-05-04T06:35:00.611Z,55.4
2023-05-04T06:36:00.598Z,55.4
2023-05-04T06:37:00.576Z,54.9
2023-05-04T06:38:00.557Z,55.2
2023-05-04T06:39:00.527Z,53.7
2023-05-04T06:40:00.565Z,55.0
2023-05-04T06:41:00.560Z,54.6
2023-05-04T06:42:00.565Z,53.2
2023-05-04T06:43:00.604Z,52.5
2023-05-04T06:44:00.560Z,50.7
2023-05-04T06:45:00.669Z,50.0
2023-05-04T06:46:01.798Z,49.2
2023-05-04T06:47:00.563Z,49.8
2023-05-04T06:48:01.702Z,50.0
2023-05-04T06:49:00.541Z,48.5
2023-05-04T06:50:00.643Z,49.0
2023-05-04T06:51:02.368Z,47.0
2023-05-04T06:52:00.607Z,49.5
2023-05-04T06:53:08.704Z,48.2
2023-05-04T06:54:00.528Z,48.2
2023-05-04T06:55:00.661Z,49.2
2023-05-04T06:56:00.746Z,48.5
2023-05-04T06:57:00.750Z,49.1
2023-05-04T06:58:00.614Z,48.0
2023-05-04T06:59:00.578Z,48.9
2023-05-04T07:00:00.663Z,48.0
2023-05-04T07:01:00.581Z,47.9
2023-05-04T07:02:00.582Z,49.2
2023-05-04T07:03:00.640Z,48.4
2023-05-04T07:04:00.759Z,48.1
2023-05-04T07:05:00.618Z,48.8
2023-05-04T07:06:00.529Z,49.0
2023-05-04T07:07:00.640Z,48.8
2023-05-04T07:08:00.534Z,48.9
2023-05-04T07:09:00.546Z,48.9
2023-05-04T07:10:00.593Z,49.7
2023-05-04T07:11:00.564Z,49.6
2023-05-04T07:12:00.592Z,50.3
2023-05-04T07:13:00.622Z,51.0
2023-05-04T07:14:00.597Z,50.8
2023-05-04T07:15:00.645Z,51.2
2023-05-04T07:16:00.576Z,51.0
2023-05-04T07:17:00.707Z,50.8
2023-05-04T07:18:00.702Z,50.9
2023-05-04T07:19:00.561Z,51.5
2023-05-04T07:20:00.709Z,51.8
2023-05-04T07:21:16.229Z,51.8
2023-05-04T07:22:00.545Z,51.8
2023-05-04T07:23:00.561Z,51.4
2023-05-04T07:24:00.598Z,51.0
2023-05-04T07:25:00.697Z,50.9
2023-05-04T07:26:00.542Z,50.6
2023-05-04T07:27:00.547Z,49.9
2023-05-04T07:28:00.572Z,49.8
2023-05-04T07:29:00.707Z,49.5
2023-05-04T07:30:01.302Z,48.8
2023-05-04T07:31:01.267Z,48.3
2023-05-04T07:32:00.549Z,48.1
2023-05-04T07:33:00.571Z,48.1
2023-05-04T07:34:00.610Z,47.5
2023-05-04T07:35:00.660Z,47.6
2023-05-04T07:36:00.534Z,47.3
2023-05-04T07:37:02.795Z,47.3
2023-05-04T07:38:01.517Z,46.1
2023-05-04T07:39:00.583Z,46.5
2023-05-04T07:40:00.640Z,46.3
2023-05-04T07:41:00.576Z,46.6
2023-05-04T07:42:01.330Z,45.2
2023-05-04T07:43:00.596Z,44.7
2023-05-04T07:44:00.554Z,44.7
2023-05-04T07:45:00.552Z,44.5
2023-05-04T07:46:00.845Z,44.7
2023-05-04T07:47:00.734Z,43.5
2023-05-04T07:48:00.534Z,43.3
2023-05-04T07:49:00.529Z,43.9
2023-05-04T07:50:00.556Z,43.0
2023-05-04T07:51:00.677Z,43.6
2023-05-04T07:52:00.541Z,43.5
2023-05-04T07:53:00.601Z,42.7
2023-05-04T07:54:00.574Z,43.2
2023-05-04T07:55:00.533Z,42.6
2023-05-04T07:56:06.544Z,42.3
2023-05-04T07:57:01.189Z,42.3
2023-05-04T07:58:00.537Z,42.2
2023-05-04T07:59:00.640Z,42.2
2023-05-04T08:00:00.533Z,41.8
2023-05-04T08:01:00.565Z,41.4
2023-05-04T08:02:00.701Z,41.6
2023-05-04T08:03:00.543Z,41.8
2023-05-04T08:04:00.541Z,41.8
2023-05-04T08:05:00.614Z,41.4
2023-05-04T08:06:00.604Z,41.8
2023-05-04T08:07:00.544Z,40.8
2023-05-04T08:08:00.614Z,41.2
2023-05-04T08:09:00.547Z,41.4
2023-05-04T08:10:00.547Z,41.0
2023-05-04T08:11:15.977Z,41.5
2023-05-04T08:12:00.545Z,42.0
2023-05-04T08:13:00.702Z,41.6
2023-05-04T08:14:00.844Z,41.6
2023-05-04T08:15:00.597Z,41.4
2023-05-04T08:16:00.591Z,41.8
2023-05-04T08:17:00.580Z,41.1
2023-05-04T08:18:00.678Z,40.8
2023-05-04T08:19:00.576Z,40.3
2023-05-04T08:20:00.617Z,40.3
2023-05-04T08:21:00.580Z,40.0
2023-05-04T08:22:00.548Z,40.3
2023-05-04T08:23:00.587Z,40.3
2023-05-04T08:24:00.663Z,40.1
2023-05-04T08:25:00.664Z,39.7
2023-05-04T08:26:01.405Z,40.1
2023-05-04T08:27:07.729Z,39.5
2023-05-04T08:28:00.579Z,39.1
2023-05-04T08:29:04.665Z,39.9
2023-05-04T08:30:00.541Z,39.9
2023-05-04T08:31:00.569Z,38.8
2023-05-04T08:32:01.105Z,38.8
2023-05-04T08:33:00.590Z,38.9
2023-05-04T08:34:00.635Z,39.2
2023-05-04T08:35:00.616Z,38.7
2023-05-04T08:36:00.620Z,39.0
2023-05-04T08:37:00.536Z,38.1
2023-05-04T08:38:00.565Z,38.1
2023-05-04T08:39:00.574Z,38.5
2023-05-04T08:40:00.618Z,39.2
2023-05-04T08:41:04.084Z,39.2
2023-05-04T08:42:00.565Z,39.2
2023-05-04T08:43:01.918Z,39.0
2023-05-04T08:44:00.565Z,38.8
2023-05-04T08:45:00.585Z,38.9
2023-05-04T08:46:00.779Z,39.0
2023-05-04T08:47:01.921Z,38.4
2023-05-04T08:48:00.616Z,38.4
2023-05-04T08:49:00.603Z,38.2
2023-05-04T08:50:00.670Z,37.5
2023-05-04T08:51:01.265Z,37.4
2023-05-04T08:52:06.235Z,37.1
2023-05-04T08:53:01.741Z,37.1
2023-05-04T08:54:02.578Z,37.1
2023-05-04T08:55:00.829Z,37.2
2023-05-04T08:56:01.181Z,37.6
2023-05-04T08:57:03.021Z,37.0
2023-05-04T08:58:02.736Z,36.8
2023-05-04T08:59:00.645Z,37.1
2023-05-04T09:00:00.604Z,37.9
2023-05-04T09:01:00.727Z,37.4
2023-05-04T09:02:01.737Z,37.3
2023-05-04T09:03:01.137Z,37.4
2023-05-04T09:04:02.117Z,37.2
2023-05-04T09:05:00.701Z,37.5
2023-05-04T09:06:01.613Z,37.4
2023-05-04T09:07:00.622Z,36.5
2023-05-04T09:08:00.586Z,36.4
2023-05-04T09:09:00.590Z,36.8
2023-05-04T09:10:00.611Z,36.5
2023-05-04T09:11:00.567Z,36.5
2023-05-04T09:12:00.618Z,36.5
2023-05-04T09:13:00.894Z,36.5
2023-05-04T09:14:00.548Z,36.7
2023-05-04T09:15:00.533Z,36.9
2023-05-04T09:16:00.581Z,37.0
2023-05-04T09:17:01.109Z,36.4
2023-05-04T09:18:02.036Z,36.4
2023-05-04T09:19:00.908Z,36.6
2023-05-04T09:20:01.464Z,36.5
2023-05-04T09:21:00.526Z,36.0
2023-05-04T09:22:01.016Z,35.9
2023-05-04T09:23:00.498Z,35.9
2023-05-04T09:24:00.589Z,36.0
2023-05-04T09:25:08.665Z,36.5
2023-05-04T09:26:00.536Z,36.5
2023-05-04T09:27:10.458Z,36.6
2023-05-04T09:28:00.573Z,36.6
2023-05-04T09:29:10.444Z,36.4
2023-05-04T09:30:00.659Z,36.4
2023-05-04T09:31:01.194Z,36.4
2023-05-04T09:32:02.793Z,36.0
2023-05-04T09:33:00.630Z,36.4
2023-05-04T09:34:08.102Z,37.0
2023-05-04T09:35:00.853Z,37.0
2023-05-04T09:36:10.426Z,36.3
2023-05-04T09:37:01.258Z,36.3
2023-05-04T09:38:00.565Z,36.0
2023-05-04T09:39:11.130Z,36.3
2023-05-04T09:40:00.547Z,36.3
2023-05-04T09:41:00.550Z,36.5
2023-05-04T09:42:00.505Z,36.3
2023-05-04T09:43:00.930Z,36.7
2023-05-04T09:44:00.547Z,36.4
2023-05-04T09:45:01.678Z,36.3
2023-05-04T09:46:00.588Z,36.5
2023-05-04T09:47:00.599Z,35.8
2023-05-04T09:48:00.834Z,36.2
2023-05-04T09:49:00.590Z,36.3
2023-05-04T09:50:10.441Z,36.7
2023-05-04T09:51:01.136Z,36.7
2023-05-04T09:52:01.676Z,37.0
2023-05-04T09:53:01.975Z,36.7
2023-05-04T09:54:00.741Z,36.7
2023-05-04T09:55:01.132Z,36.4
2023-05-04T09:56:08.750Z,36.1
2023-05-04T09:57:10.419Z,36.5
2023-05-04T09:58:01.368Z,36.5
2023-05-04T09:59:01.665Z,37.0
2023-05-04T10:00:00.983Z,37.2
2023-05-04T10:01:00.628Z,37.1
2023-05-04T10:02:07.637Z,37.1
2023-05-04T10:03:02.323Z,37.6
2023-05-04T10:04:00.772Z,38.0
2023-05-04T10:05:01.726Z,37.8
2023-05-04T10:06:02.425Z,38.0
2023-05-04T10:07:02.697Z,37.7
2023-05-04T10:08:00.587Z,37.9
2023-05-04T10:09:00.857Z,38.0
2023-05-04T10:10:00.568Z,37.9
2023-05-04T10:11:00.573Z,37.8
2023-05-04T10:12:01.357Z,37.8
2023-05-04T10:13:00.555Z,37.8
2023-05-04T10:14:00.553Z,37.4
2023-05-04T10:15:00.637Z,37.8
2023-05-04T10:16:03.878Z,37.8
2023-05-04T10:17:13.169Z,38.1
2023-05-04T10:18:10.426Z,38.0
2023-05-04T10:19:10.440Z,38.4
2023-05-04T10:20:10.440Z,38.6
2023-05-04T10:21:03.883Z,38.6
2023-05-04T10:22:01.538Z,38.6
2023-05-04T10:23:03.928Z,38.9
2023-05-04T10:24:09.684Z,38.7
2023-05-04T10:25:10.438Z,38.7
2023-05-04T10:26:00.504Z,38.7
2023-05-04T10:27:04.625Z,38.7
2023-05-04T10:28:10.412Z,39.1
2023-05-04T10:29:09.404Z,39.1
2023-05-04T10:30:00.891Z,39.1
2023-05-04T10:31:00.588Z,38.7
2023-05-04T10:32:00.749Z,38.9
2023-05-04T10:33:00.616Z,38.9
2023-05-04T10:34:01.354Z,39.3
2023-05-04T10:35:08.813Z,40.0
2023-05-04T10:36:00.922Z,40.0
2023-05-04T10:37:01.279Z,40.3
2023-05-04T10:38:00.560Z,40.2
2023-05-04T10:39:00.558Z,40.2
2023-05-04T10:40:00.675Z,39.6
2023-05-04T10:41:00.735Z,39.4
2023-05-04T10:42:00.540Z,39.2
2023-05-04T10:43:00.537Z,39.3
2023-05-04T10:44:02.374Z,38.7
2023-05-04T10:45:00.617Z,38.5
2023-05-04T10:46:00.566Z,38.4
2023-05-04T10:47:01.607Z,38.2
2023-05-04T10:48:00.601Z,38.2
2023-05-04T10:49:00.554Z,38.5
2023-05-04T10:50:01.227Z,39.0
2023-05-04T10:51:00.609Z,39.2
2023-05-04T10:52:08.864Z,39.7
2023-05-04T10:53:00.548Z,39.7
2023-05-04T10:54:00.522Z,40.1
2023-05-04T10:55:01.368Z,40.1
2023-05-04T10:56:00.632Z,39.9
2023-05-04T10:57:02.281Z,39.5
2023-05-04T10:58:00.549Z,39.5
2023-05-04T10:59:07.689Z,40.1
2023-05-04T11:00:00.526Z,40.1
2023-05-04T11:01:10.103Z,40.7
2023-05-04T11:02:01.299Z,40.7
2023-05-04T11:03:02.269Z,40.5
2023-05-04T11:04:00.537Z,40.3
2023-05-04T11:05:01.486Z,40.2
2023-05-04T11:06:00.546Z,40.1
2023-05-04T11:07:02.480Z,39.7
2023-05-04T11:08:10.430Z,39.9
2023-05-04T11:09:01.560Z,39.9
2023-05-04T11:10:01.000Z,39.9
2023-05-04T11:11:01.560Z,39.5
2023-05-04T11:12:00.532Z,39.2
2023-05-04T11:13:04.908Z,39.1
2023-05-04T11:14:00.601Z,39.1
2023-05-04T11:15:04.893Z,39.3
2023-05-04T11:16:00.913Z,39.3
2023-05-04T11:17:16.003Z,38.7
2023-05-04T11:18:00.552Z,38.7
2023-05-04T11:19:07.724Z,39.4
2023-05-04T11:20:00.558Z,39.4
2023-05-04T11:21:00.544Z,39.3
2023-05-04T11:22:00.747Z,38.8
2023-05-04T11:23:00.566Z,39.9
2023-05-04T11:24:00.637Z,39.8
2023-05-04T11:25:00.586Z,40.0
2023-05-04T11:26:04.226Z,38.6
2023-05-04T11:27:00.539Z,38.6
2023-05-04T11:28:00.586Z,38.5
2023-05-04T11:29:10.231Z,39.0
2023-05-04T11:30:01.594Z,39.0
2023-05-04T11:31:01.071Z,38.8
2023-05-04T11:32:00.584Z,39.3
2023-05-04T11:33:01.470Z,39.5
2023-05-04T11:34:00.544Z,39.6
2023-05-04T11:35:00.985Z,39.5
2023-05-04T11:36:00.603Z,39.2
2023-05-04T11:37:02.307Z,38.5
2023-05-04T11:38:00.571Z,38.1
2023-05-04T11:39:00.779Z,38.1
2023-05-04T11:40:00.584Z,38.6
2023-05-04T11:41:00.557Z,38.9
2023-05-04T11:42:04.084Z,38.3
2023-05-04T11:43:01.013Z,38.3
2023-05-04T11:44:01.409Z,38.6
2023-05-04T11:45:00.892Z,38.6
2023-05-04T11:46:00.792Z,38.5
2023-05-04T11:47:00.629Z,38.2
2023-05-04T11:48:01.121Z,38.1
2023-05-04T11:49:01.851Z,37.9
2023-05-04T11:50:00.771Z,38.0
2023-05-04T11:51:02.215Z,38.6
2023-05-04T11:52:04.811Z,38.6
2023-05-04T11:53:08.632Z,38.7
2023-05-04T11:54:00.553Z,38.7
2023-05-04T11:55:00.620Z,38.7
2023-05-04T11:56:00.928Z,38.5
2023-05-04T11:57:00.583Z,38.4
2023-05-04T11:58:01.579Z,38.3
2023-05-04T11:59:06.472Z,38.1
2023-05-04T12:00:00.558Z,38.1
2023-05-04T12:01:00.733Z,37.8
2023-05-04T12:02:00.564Z,37.7
2023-05-04T12:03:00.607Z,37.1
2023-05-04T12:04:01.025Z,36.5
2023-05-04T12:05:01.000Z,36.3
2023-05-04T12:06:01.301Z,36.5
2023-05-04T12:07:05.116Z,36.0
2023-05-04T12:08:01.386Z,36.0
2023-05-04T12:09:01.547Z,36.0
2023-05-04T12:10:00.555Z,36.1
2023-05-04T12:11:10.445Z,36.8
2023-05-04T12:12:00.537Z,36.8
2023-05-04T12:13:00.897Z,37.2
2023-05-04T12:14:02.065Z,37.5
2023-05-04T12:15:00.545Z,37.0
2023-05-04T12:16:10.565Z,36.2
2023-05-04T12:17:00.781Z,36.2
2023-05-04T12:18:02.665Z,35.4
2023-05-04T12:19:02.031Z,35.3
2023-05-04T12:20:00.567Z,35.4
2023-05-04T12:21:07.912Z,35.6
2023-05-04T12:22:00.582Z,35.6
2023-05-04T12:23:07.722Z,34.7
2023-05-04T12:24:00.864Z,34.7
2023-05-04T12:25:00.627Z,34.4
2023-05-04T12:26:00.574Z,34.0
2023-05-04T12:27:00.585Z,33.4
2023-05-04T12:28:01.084Z,33.7
2023-05-04T12:29:00.562Z,34.0
2023-05-04T12:30:00.597Z,34.2
2023-05-04T12:31:00.908Z,34.8
2023-05-04T12:32:00.604Z,34.9
2023-05-04T12:33:00.621Z,34.8
2023-05-04T12:34:00.561Z,35.2
2023-05-04T12:35:00.625Z,35.1
2023-05-04T12:36:01.261Z,35.2
2023-05-04T12:37:00.544Z,35.0
2023-05-04T12:38:00.596Z,34.9
2023-05-04T12:39:00.568Z,35.2
2023-05-04T12:40:00.552Z,35.2
2023-05-04T12:41:00.906Z,35.2
2023-05-04T12:42:00.532Z,35.2
2023-05-04T12:43:00.527Z,35.4
2023-05-04T12:44:00.690Z,37.1
2023-05-04T12:45:00.681Z,36.8
2023-05-04T12:46:00.778Z,36.9
2023-05-04T12:47:00.532Z,36.3
2023-05-04T12:48:00.739Z,36.0
2023-05-04T12:49:00.553Z,36.3
2023-05-04T12:50:00.549Z,36.3
2023-05-04T12:51:00.565Z,36.2
2023-05-04T12:52:00.566Z,36.3
2023-05-04T12:53:00.528Z,35.8
2023-05-04T12:54:00.512Z,36.1
2023-05-04T12:55:00.615Z,36.2
2023-05-04T12:56:00.600Z,35.8
2023-05-04T12:57:00.557Z,36.1
2023-05-04T12:58:01.206Z,36.3
2023-05-04T12:59:00.560Z,36.5
2023-05-04T13:00:00.548Z,36.9
2023-05-04T13:01:00.619Z,37.0
2023-05-04T13:02:00.555Z,36.7
2023-05-04T13:03:01.014Z,36.9
2023-05-04T13:04:00.592Z,37.4
2023-05-04T13:05:00.537Z,37.1
2023-05-04T13:06:00.648Z,37.1
2023-05-04T13:07:00.533Z,36.8
2023-05-04T13:08:00.535Z,37.3
2023-05-04T13:09:00.609Z,37.2
2023-05-04T13:10:00.552Z,37.0
2023-05-04T13:11:00.617Z,36.9
2023-05-04T13:12:00.520Z,36.8
2023-05-04T13:13:00.655Z,36.6
2023-05-04T13:14:00.713Z,36.8
2023-05-04T13:15:00.575Z,36.9
2023-05-04T13:16:00.569Z,37.0
2023-05-04T13:17:00.726Z,36.3
2023-05-04T13:18:00.698Z,36.0